Time;durP1;ratioP1;P1;durP2;ratioP2;P2;SDS_P1;SDS_P2;PMS_P1;PMS_P2;Temp;Humidity;BMP_temperature;BMP_pressure;BME280_temperature;BME280_humidity;BME280_pressure;Samples;Min_cycle;Max_cycle;Signal;HPM_P1;HPM_P2
2022/01/25 00:29:06;;;;;;;104.70;43.90;;;1.60;99.90;;;;;;7335724;19;113388;-79
2022/01/25 00:31:32;;;;;;;108.35;44.72;;;1.60;99.90;;;;;;7339489;19;112089;-80
2022/01/25 00:33:59;;;;;;;116.73;45.77;;;1.60;99.90;;;;;;7340737;19;111767;-79
2022/01/25 00:36:29;;;;;;;113.30;46.40;;;1.50;99.90;;;;;;7338937;19;112840;-79
2022/01/25 00:38:57;;;;;;;109.30;45.33;;;1.50;99.90;;;;;;7340478;19;112555;-79
2022/01/25 00:41:26;;;;;;;118.83;48.97;;;1.50;99.90;;;;;;7336777;19;112543;-79
2022/01/25 00:43:54;;;;;;;126.73;48.97;;;1.50;99.90;;;;;;7339957;19;112396;-79
2022/01/25 00:46:22;;;;;;;119.80;46.73;;;1.50;99.90;;;;;;7337159;19;110690;-79
2022/01/25 00:48:53;;;;;;;125.73;49.07;;;1.50;99.90;;;;;;7339862;19;115588;-79
2022/01/25 00:54:03;;;;;;;120.47;47.27;;;1.50;99.90;;;;;;7339806;19;115416;-79
2022/01/25 00:56:43;;;;;;;125.73;48.43;;;1.50;99.90;;;;;;7343790;19;115861;-79
2022/01/25 00:59:15;;;;;;;126.87;47.37;;;1.60;99.90;;;;;;7337799;19;115783;-78
2022/01/25 01:01:43;;;;;;;122.57;48.20;;;1.60;99.90;;;;;;7336064;19;110850;-79
2022/01/25 01:04:11;;;;;;;117.67;46.53;;;1.60;99.90;;;;;;7334574;19;112571;-79
2022/01/25 01:06:41;;;;;;;106.03;45.07;;;1.50;99.90;;;;;;7339854;19;114686;-79
2022/01/25 01:09:09;;;;;;;111.27;45.73;;;1.60;99.90;;;;;;7333192;19;112737;-79
2022/01/25 01:11:44;;;;;;;107.27;45.40;;;1.60;99.90;;;;;;7336831;19;110580;-79
2022/01/25 01:14:25;;;;;;;106.73;46.27;;;1.70;99.90;;;;;;7333612;19;112274;-79
2022/01/25 01:17:30;;;;;;;92.83;42.40;;;1.70;99.90;;;;;;7335940;19;112444;-79
2022/01/25 01:31:16;;;;;;;83.87;39.27;;;1.80;99.90;;;;;;7334574;19;112756;-79
2022/01/25 01:44:23;;;;;;;88.57;39.80;;;1.90;99.90;;;;;;7339299;19;110746;-81
2022/01/25 01:47:03;;;;;;;78.50;37.77;;;1.80;99.90;;;;;;7344652;19;112123;-80
2022/01/25 01:49:37;;;;;;;73.80;35.90;;;1.80;99.90;;;;;;7342322;19;112159;-79
2022/01/25 01:52:06;;;;;;;74.10;36.50;;;1.80;99.90;;;;;;7343914;19;112543;-80
2022/01/25 01:54:34;;;;;;;77.07;37.03;;;1.80;99.90;;;;;;7344333;19;111915;-81
2022/01/25 01:57:01;;;;;;;80.97;38.47;;;1.90;99.90;;;;;;7343301;19;112559;-79
2022/01/25 01:59:28;;;;;;;81.70;37.27;;;1.80;99.90;;;;;;7345286;19;109962;-80
2022/01/25 02:01:55;;;;;;;85.40;38.43;;;1.80;99.90;;;;;;7339850;19;111878;-79
2022/01/25 02:04:23;;;;;;;78.47;38.10;;;1.70;99.90;;;;;;7350444;19;112807;-78
2022/01/25 02:06:50;;;;;;;78.63;36.87;;;1.70;99.90;;;;;;7338192;19;112224;-80
2022/01/25 02:09:17;;;;;;;84.57;39.97;;;1.70;99.90;;;;;;7344501;19;112249;-79
2022/01/25 02:11:44;;;;;;;80.33;38.77;;;1.70;99.90;;;;;;7339769;19;114546;-80
2022/01/25 02:14:13;;;;;;;79.40;37.33;;;1.70;99.90;;;;;;7338439;19;111735;-80
2022/01/25 02:24:49;;;;;;;83.67;37.77;;;1.90;99.90;;;;;;7339849;19;112203;-80
2022/01/25 02:27:16;;;;;;;76.90;35.73;;;1.80;99.90;;;;;;7347300;19;110980;-79
2022/01/25 02:29:44;;;;;;;85.10;39.63;;;1.90;99.90;;;;;;7344211;19;116791;-80
2022/01/25 02:32:12;;;;;;;82.13;39.03;;;1.90;99.90;;;;;;7340138;19;111443;-80
2022/01/25 02:34:39;;;;;;;86.70;39.97;;;2.00;99.90;;;;;;7342269;19;112126;-80
2022/01/25 02:37:09;;;;;;;89.63;40.30;;;2.00;99.90;;;;;;7341188;19;117429;-80
2022/01/25 02:39:38;;;;;;;92.47;42.50;;;2.00;99.90;;;;;;7340938;19;112644;-79
2022/01/25 02:42:06;;;;;;;97.23;42.73;;;2.10;99.90;;;;;;7340185;19;111768;-80
2022/01/25 02:44:35;;;;;;;101.13;42.23;;;2.10;99.90;;;;;;7340212;19;112052;-79
2022/01/25 02:49:33;;;;;;;95.77;42.33;;;2.20;99.90;;;;;;7344192;19;112600;-80
2022/01/25 02:52:02;;;;;;;86.00;41.10;;;2.30;99.90;;;;;;7343001;19;110925;-79
2022/01/25 02:54:30;;;;;;;89.13;43.50;;;2.40;99.90;;;;;;7340597;19;113344;-78
2022/01/25 02:56:57;;;;;;;91.60;40.67;;;2.50;99.90;;;;;;7340462;19;110391;-79
2022/01/25 02:59:24;;;;;;;84.30;40.97;;;2.60;99.90;;;;;;7340805;19;112533;-79
2022/01/25 03:01:51;;;;;;;90.80;42.97;;;2.70;99.90;;;;;;7338686;19;112326;-79
2022/01/25 03:04:21;;;;;;;93.60;43.67;;;2.70;99.90;;;;;;7342991;19;110759;-79
2022/01/25 03:06:48;;;;;;;83.03;40.33;;;2.80;99.90;;;;;;7339451;19;112353;-78
2022/01/25 03:09:15;;;;;;;89.30;41.80;;;2.80;99.90;;;;;;7342031;19;111814;-79
2022/01/25 03:11:47;;;;;;;80.77;39.77;;;2.80;99.90;;;;;;7344561;19;112182;-79
2022/01/25 03:14:14;;;;;;;85.90;41.70;;;2.90;99.90;;;;;;7338496;19;112084;-79
2022/01/25 03:16:46;;;;;;;85.33;39.90;;;2.90;99.90;;;;;;7341221;19;113328;-80
2022/01/25 03:22:13;;;;;;;82.83;39.67;;;2.90;99.90;;;;;;7341377;19;111803;-79
2022/01/25 03:24:41;;;;;;;87.10;40.70;;;2.90;99.90;;;;;;7339560;19;113418;-79
2022/01/25 03:27:08;;;;;;;86.23;41.73;;;3.00;99.90;;;;;;7340102;19;112912;-79
2022/01/25 03:29:35;;;;;;;99.90;43.63;;;3.00;99.90;;;;;;7342066;19;112161;-79
2022/01/25 03:32:02;;;;;;;92.53;40.50;;;3.00;99.90;;;;;;7340225;19;115055;-79
2022/01/25 03:34:30;;;;;;;101.40;44.80;;;3.00;99.90;;;;;;7345945;19;112785;-79
2022/01/25 03:36:57;;;;;;;99.93;43.70;;;3.00;99.90;;;;;;7338313;19;112570;-79
2022/01/25 03:39:25;;;;;;;98.37;42.73;;;3.10;99.90;;;;;;7341949;19;112910;-79
2022/01/25 03:41:53;;;;;;;91.70;41.77;;;3.10;99.90;;;;;;7336695;19;112389;-79
2022/01/25 03:44:20;;;;;;;94.57;43.20;;;3.10;99.90;;;;;;7340787;19;112423;-79
2022/01/25 03:52:01;;;;;;;91.53;42.33;;;3.20;99.90;;;;;;7341989;19;110765;-79
2022/01/25 03:54:29;;;;;;;83.37;41.07;;;3.20;99.90;;;;;;7342169;19;112644;-79
2022/01/25 03:56:56;;;;;;;89.03;41.03;;;3.20;99.90;;;;;;7339010;19;112118;-80
2022/01/25 03:59:23;;;;;;;;;;;3.20;99.90;;;;;;7340133;19;112527;-77
2022/01/25 04:01:50;;;;;;;81.00;37.10;;;3.20;99.90;;;;;;7343901;19;111761;-80
2022/01/25 04:04:22;;;;;;;77.43;38.50;;;3.20;99.90;;;;;;7341502;19;110809;-79
2022/01/25 04:06:51;;;;;;;78.50;36.83;;;3.30;99.90;;;;;;7338065;19;112985;-79
2022/01/25 04:09:19;;;;;;;74.97;37.20;;;3.30;99.90;;;;;;7338393;19;114012;-79
2022/01/25 04:11:46;;;;;;;73.63;38.33;;;3.30;99.90;;;;;;7335378;19;111995;-79
2022/01/25 04:14:13;;;;;;;79.00;38.20;;;3.40;99.90;;;;;;7338336;19;111287;-79
2022/01/25 04:16:51;;;;;;;77.13;39.03;;;3.40;99.90;;;;;;7343562;19;112065;-79
2022/01/25 04:19:44;;;;;;;77.43;37.30;;;3.40;99.90;;;;;;7336395;19;112337;-79
2022/01/25 04:27:30;;;;;;;92.47;41.80;;;3.40;99.90;;;;;;7339217;19;112885;-79
2022/01/25 04:29:58;;;;;;;86.30;40.20;;;3.40;99.90;;;;;;7340834;19;112411;-79
2022/01/25 04:32:43;;;;;;;84.00;40.87;;;3.40;99.90;;;;;;7335689;19;112047;-78
2022/01/25 04:35:25;;;;;;;89.13;40.20;;;3.40;99.90;;;;;;7339572;19;112927;-80
2022/01/25 04:54:23;;;;;;;;;;;3.50;99.90;;;;;;7337902;19;112542;-79
2022/01/25 05:02:00;;;;;;;99.60;44.20;;;3.50;99.90;;;;;;7337936;19;115255;-80
2022/01/25 05:04:32;;;;;;;92.93;42.20;;;3.60;99.90;;;;;;7339517;19;112495;-79
2022/01/25 05:07:11;;;;;;;100.37;45.67;;;3.60;99.90;;;;;;7336102;19;112530;-80
2022/01/25 05:09:39;;;;;;;106.93;44.17;;;3.60;99.90;;;;;;7338201;19;111865;-80
2022/01/25 05:12:09;;;;;;;94.67;42.90;;;3.60;99.90;;;;;;7336826;19;111415;-79
2022/01/25 05:14:47;;;;;;;95.57;43.80;;;3.60;99.90;;;;;;7337113;19;112361;-80
2022/01/25 05:17:18;;;;;;;116.07;49.13;;;3.70;99.90;;;;;;7337703;19;112704;-79
2022/01/25 05:22:20;;;;;;;122.67;49.60;;;3.70;99.90;;;;;;7339577;19;112527;-80
2022/01/25 05:24:48;;;;;;;110.87;48.67;;;3.70;99.90;;;;;;7334224;19;112789;-79
2022/01/25 05:27:18;;;;;;;117.60;50.60;;;3.70;99.90;;;;;;7342864;19;111988;-80
2022/01/25 05:29:45;;;;;;;115.50;49.20;;;3.70;99.90;;;;;;7334913;19;112693;-79
2022/01/25 05:32:12;;;;;;;119.47;51.37;;;3.80;99.90;;;;;;7336112;19;112242;-80
2022/01/25 05:34:39;;;;;;;114.30;50.07;;;3.80;99.90;;;;;;7336255;19;112407;-80
2022/01/25 05:37:07;;;;;;;121.70;51.73;;;3.80;99.90;;;;;;7332765;19;112391;-80
2022/01/25 05:39:37;;;;;;;121.33;50.73;;;3.80;99.90;;;;;;7336569;19;111916;-80
2022/01/25 05:48:09;;;;;;;116.93;49.70;;;3.80;99.90;;;;;;7334190;19;112065;-80
2022/01/25 05:50:36;;;;;;;119.37;50.50;;;3.80;99.90;;;;;;7337297;19;113900;-80
2022/01/25 05:53:03;;;;;;;123.57;52.30;;;3.80;99.90;;;;;;7335408;19;112088;-80
2022/01/25 05:55:30;;;;;;;122.03;51.07;;;3.80;99.90;;;;;;7334146;19;112477;-80
2022/01/25 05:57:57;;;;;;;121.33;49.87;;;3.80;99.90;;;;;;7333591;19;112593;-80
2022/01/25 06:00:24;;;;;;;119.90;51.23;;;3.80;99.90;;;;;;7335711;19;112261;-80
2022/01/25 06:02:54;;;;;;;115.97;49.63;;;3.80;99.90;;;;;;7332333;19;112359;-80
2022/01/25 06:05:23;;;;;;;112.23;49.27;;;3.90;99.90;;;;;;7336601;19;113646;-79
2022/01/25 06:07:50;;;;;;;121.37;50.37;;;3.90;99.90;;;;;;7333487;19;112769;-80
2022/01/25 06:10:18;;;;;;;118.43;50.60;;;3.90;99.90;;;;;;7340737;19;112680;-80
2022/01/25 06:12:46;;;;;;;117.63;50.03;;;4.00;99.90;;;;;;7332661;19;111685;-80
2022/01/25 06:15:13;;;;;;;115.80;51.27;;;3.90;99.90;;;;;;7334643;19;112297;-80
2022/01/25 06:17:41;;;;;;;110.27;49.90;;;4.00;99.90;;;;;;7337024;19;112874;-80
2022/01/25 06:20:08;;;;;;;115.00;49.50;;;4.00;99.90;;;;;;7328808;19;111499;-80
2022/01/25 06:22:36;;;;;;;112.70;48.83;;;4.10;99.90;;;;;;7329784;19;112347;-79
2022/01/25 06:25:04;;;;;;;107.83;48.13;;;4.10;99.90;;;;;;7332365;19;112830;-79
2022/01/25 06:27:35;;;;;;;116.53;49.37;;;4.10;99.90;;;;;;7336249;19;112229;-79
2022/01/25 06:30:02;;;;;;;114.47;47.73;;;4.20;99.90;;;;;;7332371;19;112327;-80
2022/01/25 06:32:29;;;;;;;110.37;49.43;;;4.20;99.90;;;;;;7344026;19;114158;-80
2022/01/25 06:34:56;;;;;;;108.83;47.40;;;4.20;99.90;;;;;;7345039;19;111971;-80
2022/01/25 06:37:24;;;;;;;111.40;48.83;;;4.10;99.90;;;;;;7338753;19;114114;-79
2022/01/25 06:39:50;;;;;;;103.83;46.67;;;4.00;99.90;;;;;;7343123;19;112117;-80
2022/01/25 06:42:18;;;;;;;101.07;46.70;;;4.00;99.90;;;;;;7337917;19;112543;-80
2022/01/25 06:44:45;;;;;;;107.10;48.47;;;3.90;99.90;;;;;;7340365;19;112570;-79
2022/01/25 06:47:12;;;;;;;109.30;46.87;;;4.00;99.90;;;;;;7337807;19;111894;-80
2022/01/25 06:49:39;;;;;;;107.57;48.50;;;4.00;99.90;;;;;;7340682;19;112271;-79
2022/01/25 06:52:10;;;;;;;105.37;48.20;;;4.00;99.90;;;;;;7340284;19;115836;-80
2022/01/25 06:54:37;;;;;;;110.67;49.03;;;4.00;99.90;;;;;;7345514;19;110528;-79
2022/01/25 06:57:04;;;;;;;106.30;48.60;;;4.00;99.90;;;;;;7341050;19;112478;-80
2022/01/25 06:59:31;;;;;;;108.10;46.30;;;4.00;99.90;;;;;;7340495;19;111817;-80
2022/01/25 07:01:58;;;;;;;112.30;49.30;;;4.00;99.90;;;;;;7343726;19;113050;-80
2022/01/25 07:04:25;;;;;;;106.80;48.37;;;4.10;99.90;;;;;;7339669;19;115657;-79
2022/01/25 07:06:52;;;;;;;105.10;48.77;;;4.10;99.90;;;;;;7344457;19;115768;-79
2022/01/25 07:09:19;;;;;;;109.57;49.67;;;4.10;99.90;;;;;;7337180;19;112305;-80
2022/01/25 07:11:46;;;;;;;103.77;48.07;;;4.20;99.90;;;;;;7342600;19;115641;-79
2022/01/25 07:14:13;;;;;;;115.93;48.33;;;4.20;99.90;;;;;;7339896;19;113825;-80
2022/01/25 07:16:41;;;;;;;105.10;45.73;;;4.20;99.90;;;;;;7346122;19;112433;-80
2022/01/25 07:19:08;;;;;;;107.53;47.77;;;4.30;99.90;;;;;;7341516;19;110631;-80
2022/01/25 07:21:35;;;;;;;110.03;46.77;;;4.30;99.90;;;;;;7340919;19;113777;-80
2022/01/25 07:24:02;;;;;;;101.27;45.73;;;4.30;99.90;;;;;;7341365;19;113446;-80
2022/01/25 07:26:29;;;;;;;108.10;47.33;;;4.40;99.90;;;;;;7337162;19;112017;-80
2022/01/25 07:28:56;;;;;;;121.77;47.50;;;4.40;99.90;;;;;;7342858;19;112510;-80
2022/01/25 07:31:23;;;;;;;100.80;45.90;;;4.50;99.90;;;;;;7336490;19;115490;-79
2022/01/25 07:33:53;;;;;;;115.70;47.23;;;4.50;99.90;;;;;;7341806;19;112651;-80
2022/01/25 07:36:23;;;;;;;105.03;46.37;;;4.50;99.90;;;;;;7338160;19;112631;-80
2022/01/25 07:38:52;;;;;;;108.30;45.63;;;4.50;99.90;;;;;;7343814;19;113022;-80
2022/01/25 07:41:27;;;;;;;101.67;45.93;;;4.50;99.90;;;;;;7341266;19;110956;-80
2022/01/25 07:43:59;;;;;;;100.30;46.00;;;4.50;99.90;;;;;;7337023;19;112638;-80
2022/01/25 07:46:29;;;;;;;91.13;44.33;;;4.50;99.90;;;;;;7341373;19;112479;-80
2022/01/25 07:49:02;;;;;;;91.47;42.63;;;4.50;99.90;;;;;;7337482;19;112155;-80
2022/01/25 07:51:35;;;;;;;91.50;44.30;;;4.60;99.90;;;;;;7339817;19;111825;-80
2022/01/25 07:54:02;;;;;;;89.17;43.40;;;4.60;99.90;;;;;;7339291;19;112975;-80
2022/01/25 07:56:29;;;;;;;93.67;44.13;;;4.60;99.90;;;;;;7340866;19;112025;-80
2022/01/25 07:58:56;;;;;;;91.07;44.43;;;4.60;99.90;;;;;;7339538;19;112653;-80
2022/01/25 08:01:24;;;;;;;93.93;43.47;;;4.60;99.90;;;;;;7342442;19;112114;-80
2022/01/25 08:03:51;;;;;;;91.43;44.13;;;4.60;99.90;;;;;;7341197;19;112547;-80
2022/01/25 08:06:29;;;;;;;98.50;45.40;;;4.50;99.90;;;;;;7338067;19;112319;-79
2022/01/25 08:08:58;;;;;;;88.63;43.67;;;4.40;99.90;;;;;;7339521;19;112468;-80
2022/01/25 08:11:36;;;;;;;92.17;42.97;;;4.40;99.90;;;;;;7339277;19;113046;-80
2022/01/25 08:14:12;;;;;;;90.43;44.67;;;4.40;99.90;;;;;;7340416;19;110509;-80
2022/01/25 08:16:49;;;;;;;91.07;43.47;;;4.40;99.90;;;;;;7339570;19;112061;-80
2022/01/25 08:19:18;;;;;;;102.40;43.43;;;4.40;99.90;;;;;;7338078;19;113302;-80
2022/01/25 08:21:48;;;;;;;95.57;42.73;;;4.40;99.90;;;;;;7344377;19;111680;-80
2022/01/25 08:24:18;;;;;;;91.07;43.43;;;4.50;99.90;;;;;;7338368;19;112955;-80
2022/01/25 08:26:47;;;;;;;87.77;42.60;;;4.50;99.90;;;;;;7340841;19;110667;-81
2022/01/25 08:29:24;;;;;;;95.67;43.30;;;4.60;99.90;;;;;;7336514;19;113449;-80
2022/01/25 08:32:00;;;;;;;86.67;43.07;;;4.50;99.90;;;;;;7339716;19;111174;-80
2022/01/25 08:34:46;;;;;;;90.13;44.13;;;4.60;99.90;;;;;;7340816;19;112138;-81
2022/01/25 08:37:16;;;;;;;82.87;42.50;;;4.50;99.90;;;;;;7336430;19;112057;-80
2022/01/25 08:39:47;;;;;;;88.10;44.03;;;4.50;99.90;;;;;;7340501;19;111227;-81
2022/01/25 08:42:15;;;;;;;86.37;42.40;;;4.50;99.90;;;;;;7336838;19;110253;-81
2022/01/25 08:44:48;;;;;;;92.73;44.30;;;4.50;99.90;;;;;;7342678;19;112271;-81
2022/01/25 08:47:26;;;;;;;85.28;43.17;;;4.60;99.90;;;;;;7335678;19;112241;-80
2022/01/25 08:49:55;;;;;;;86.43;44.07;;;4.60;99.90;;;;;;7338790;19;112440;-81
2022/01/25 08:52:22;;;;;;;86.37;43.60;;;4.60;99.90;;;;;;7340822;19;112964;-80
2022/01/25 08:54:49;;;;;;;82.67;42.00;;;4.70;99.90;;;;;;7336714;19;112705;-81
2022/01/25 08:57:16;;;;;;;86.40;42.90;;;4.80;99.90;;;;;;7340654;19;112269;-81
2022/01/25 08:59:53;;;;;;;83.27;42.13;;;4.80;99.90;;;;;;7337185;19;112556;-81
2022/01/25 09:02:20;;;;;;;83.00;42.20;;;4.80;99.90;;;;;;7337781;19;110444;-81
2022/01/25 09:04:47;;;;;;;84.50;41.57;;;4.90;99.90;;;;;;7337642;19;110842;-81
2022/01/25 09:07:14;;;;;;;86.33;41.67;;;4.90;99.90;;;;;;7337658;19;110910;-80
2022/01/25 09:09:42;;;;;;;81.73;40.63;;;4.90;99.90;;;;;;7337684;19;112239;-81
2022/01/25 09:12:10;;;;;;;85.90;42.57;;;5.00;99.90;;;;;;7336881;19;111717;-80
2022/01/25 09:14:37;;;;;;;92.70;44.43;;;5.00;99.90;;;;;;7339195;19;111852;-80
2022/01/25 09:17:07;;;;;;;89.53;44.63;;;5.00;99.90;;;;;;7333727;19;113122;-81
2022/01/25 09:19:38;;;;;;;86.80;43.67;;;5.00;99.90;;;;;;7338654;19;113857;-80
2022/01/25 09:22:06;;;;;;;86.67;44.17;;;5.00;99.90;;;;;;7333824;19;112297;-80
2022/01/25 09:24:33;;;;;;;85.77;42.83;;;5.10;99.90;;;;;;7337970;19;113524;-80
2022/01/25 09:27:02;;;;;;;80.33;42.17;;;5.10;99.90;;;;;;7336752;19;111129;-80
2022/01/25 09:29:30;;;;;;;84.77;43.03;;;5.10;99.90;;;;;;7343453;19;111669;-80
2022/01/25 09:31:57;;;;;;;88.80;43.90;;;5.20;99.90;;;;;;7335856;19;113980;-80
2022/01/25 09:34:25;;;;;;;85.10;42.20;;;5.20;99.90;;;;;;7337328;19;113264;-80
2022/01/25 09:36:53;;;;;;;82.93;42.03;;;5.20;99.90;;;;;;7339477;19;112207;-80
2022/01/25 09:39:21;;;;;;;84.27;42.70;;;5.20;99.90;;;;;;7334891;19;112624;-80
2022/01/25 09:41:48;;;;;;;85.67;42.17;;;5.20;99.90;;;;;;7338977;19;111889;-80
2022/01/25 09:44:15;;;;;;;87.93;42.27;;;5.30;99.90;;;;;;7335619;19;112288;-81
2022/01/25 09:46:43;;;;;;;83.57;41.10;;;5.30;99.90;;;;;;7338301;19;113098;-81
2022/01/25 09:49:11;;;;;;;89.77;43.83;;;5.30;99.90;;;;;;7335165;19;110636;-81
2022/01/25 09:51:41;;;;;;;83.50;43.00;;;5.30;99.90;;;;;;7342771;19;111797;-80
2022/01/25 09:54:08;;;;;;;84.30;42.13;;;5.30;99.90;;;;;;7334718;19;113273;-80
2022/01/25 09:56:35;;;;;;;86.23;42.93;;;5.40;99.90;;;;;;7337931;19;110933;-81
2022/01/25 09:59:03;;;;;;;85.47;43.40;;;5.40;99.90;;;;;;7334505;19;111676;-80
2022/01/25 10:01:31;;;;;;;87.57;43.60;;;5.40;99.90;;;;;;7337176;19;114148;-81
2022/01/25 10:04:00;;;;;;;84.83;42.53;;;5.50;99.90;;;;;;7333617;19;115083;-80
2022/01/25 10:06:32;;;;;;;84.17;41.87;;;5.40;99.90;;;;;;7338316;19;115558;-81
2022/01/25 10:09:00;;;;;;;85.23;43.27;;;5.40;99.90;;;;;;7342340;19;111934;-81
2022/01/25 10:11:27;;;;;;;87.57;43.27;;;5.40;99.90;;;;;;7341945;19;112371;-81
2022/01/25 10:13:57;;;;;;;79.33;40.60;;;5.40;99.90;;;;;;7350556;19;112709;-81
2022/01/25 10:16:33;;;;;;;78.03;41.17;;;5.40;99.90;;;;;;7340816;19;112059;-80
2022/01/25 10:19:06;;;;;;;84.37;43.30;;;5.40;99.90;;;;;;7345131;19;112616;-81
2022/01/25 10:21:39;;;;;;;80.20;41.73;;;5.40;99.90;;;;;;7338987;19;114298;-81
2022/01/25 10:24:15;;;;;;;86.33;43.63;;;5.30;99.90;;;;;;7345136;19;112605;-81
2022/01/25 10:26:58;;;;;;;82.53;43.27;;;5.30;99.90;;;;;;7341149;19;112366;-80
2022/01/25 10:29:34;;;;;;;89.77;45.00;;;5.40;99.90;;;;;;7341395;19;112158;-80
2022/01/25 10:32:04;;;;;;;91.03;46.87;;;5.30;99.90;;;;;;7342158;19;112355;-81
2022/01/25 10:34:45;;;;;;;92.70;45.10;;;5.30;99.90;;;;;;7347622;19;113532;-80
2022/01/25 10:37:15;;;;;;;91.17;43.53;;;5.20;99.90;;;;;;7345824;19;115123;-81
2022/01/25 10:39:47;;;;;;;84.43;43.70;;;5.10;99.90;;;;;;7338582;19;114070;-80
2022/01/25 10:42:25;;;;;;;86.30;43.90;;;5.10;99.90;;;;;;7344398;19;111434;-80
2022/01/25 10:44:55;;;;;;;90.83;45.70;;;5.20;99.90;;;;;;7342203;19;114546;-80
2022/01/25 10:47:49;;;;;;;82.13;43.03;;;5.20;99.90;;;;;;7342754;19;111025;-80
2022/01/25 10:50:23;;;;;;;85.43;43.50;;;5.30;99.90;;;;;;7343562;19;112273;-81
2022/01/25 10:53:07;;;;;;;94.10;45.03;;;5.20;99.90;;;;;;7341172;19;111023;-80
2022/01/25 10:55:49;;;;;;;91.53;45.53;;;5.30;99.90;;;;;;7344005;19;112328;-80
2022/01/25 10:58:17;;;;;;;87.70;43.97;;;5.40;99.90;;;;;;7345429;19;112061;-81
2022/01/25 11:00:50;;;;;;;83.73;44.17;;;5.50;99.90;;;;;;7341384;19;112847;-81
2022/01/25 11:03:35;;;;;;;86.57;43.87;;;5.60;99.90;;;;;;7338613;19;114494;-80
2022/01/25 11:06:16;;;;;;;91.30;45.47;;;5.70;99.90;;;;;;7341206;19;112542;-81
2022/01/25 11:08:46;;;;;;;87.87;44.60;;;5.70;99.90;;;;;;7343796;19;115797;-81
2022/01/25 11:11:32;;;;;;;89.37;44.80;;;5.70;99.90;;;;;;7340625;19;112055;-80
2022/01/25 11:14:50;;;;;;;92.57;46.13;;;5.80;99.90;;;;;;7343428;19;111976;-80
2022/01/25 11:16:49;;;;;;;93.32;47.15;;;5.80;99.90;;;;;;7339516;19;112692;-81
2022/01/25 11:19:16;;;;;;;94.90;46.20;;;5.80;99.90;;;;;;7341861;19;114625;-80
2022/01/25 11:21:44;;;;;;;90.73;46.13;;;5.70;99.90;;;;;;7346495;19;112476;-81
2022/01/25 11:24:16;;;;;;;90.40;45.57;;;5.80;99.90;;;;;;7340801;19;111939;-81
2022/01/25 11:26:45;;;;;;;86.57;44.90;;;5.80;99.90;;;;;;7338527;19;113370;-80
2022/01/25 11:29:13;;;;;;;83.37;42.90;;;5.70;99.90;;;;;;7338845;19;112635;-81
2022/01/25 11:31:44;;;;;;;90.47;44.27;;;5.70;99.90;;;;;;7342232;19;110534;-80
2022/01/25 11:34:13;;;;;;;85.93;44.43;;;5.60;99.90;;;;;;7338209;19;111990;-81
2022/01/25 11:36:56;;;;;;;88.23;45.43;;;5.60;99.90;;;;;;7340845;19;111016;-80
2022/01/25 11:39:25;;;;;;;85.37;43.87;;;5.60;99.90;;;;;;7339434;19;112199;-80
2022/01/25 11:42:09;;;;;;;85.37;44.63;;;5.50;99.90;;;;;;7341522;19;113520;-80
2022/01/25 11:44:55;;;;;;;83.60;43.10;;;5.60;99.90;;;;;;7345145;19;110861;-80
2022/01/25 11:47:31;;;;;;;85.43;42.70;;;5.60;99.90;;;;;;7340173;19;111545;-80
2022/01/25 11:50:11;;;;;;;88.97;44.77;;;5.60;99.90;;;;;;7340723;19;112502;-80
2022/01/25 11:52:53;;;;;;;90.13;44.80;;;5.70;99.90;;;;;;7336640;19;110602;-80
2022/01/25 11:55:26;;;;;;;84.07;44.23;;;5.70;99.90;;;;;;7339688;19;112250;-81
2022/01/25 11:57:58;;;;;;;89.23;43.77;;;5.70;99.90;;;;;;7337853;19;113638;-80
2022/01/25 12:00:56;;;;;;;88.00;44.27;;;5.70;99.90;;;;;;7339688;19;112243;-81
2022/01/25 12:03:34;;;;;;;87.45;44.20;;;5.70;99.90;;;;;;7338898;19;116371;-81
2022/01/25 12:06:07;;;;;;;86.50;45.13;;;5.70;99.90;;;;;;7337341;19;114663;-80
2022/01/25 12:09:13;;;;;;;89.57;45.27;;;5.80;99.90;;;;;;7347068;19;111803;-80
2022/01/25 12:11:51;;;;;;;95.33;46.30;;;5.80;99.90;;;;;;7337416;19;112642;-81
2022/01/25 12:14:23;;;;;;;87.43;46.50;;;5.80;99.90;;;;;;7340154;19;112420;-81
2022/01/25 12:17:02;;;;;;;94.30;47.90;;;5.80;99.90;;;;;;7340898;19;112424;-80
2022/01/25 12:19:46;;;;;;;96.93;47.43;;;5.80;99.90;;;;;;7338598;19;111840;-80
2022/01/25 12:22:38;;;;;;;92.37;46.57;;;5.80;99.90;;;;;;7338777;19;111834;-80
2022/01/25 12:25:18;;;;;;;99.43;47.87;;;5.90;99.90;;;;;;7338873;19;112366;-81
2022/01/25 12:28:07;;;;;;;99.07;48.00;;;5.90;99.90;;;;;;7338618;19;113092;-81
2022/01/25 12:30:53;;;;;;;94.70;48.13;;;5.90;99.90;;;;;;7341307;19;112021;-80
2022/01/25 12:33:29;;;;;;;98.03;49.13;;;5.80;99.90;;;;;;7343554;19;109967;-81
2022/01/25 12:36:05;;;;;;;98.60;48.13;;;5.70;99.90;;;;;;7339247;19;111899;-80
2022/01/25 12:38:38;;;;;;;102.17;47.97;;;5.70;99.90;;;;;;7334503;19;112289;-81
2022/01/25 12:41:16;;;;;;;95.70;46.73;;;5.60;99.90;;;;;;7337070;19;112778;-80
2022/01/25 12:43:53;;;;;;;100.10;49.33;;;5.60;99.90;;;;;;7335445;19;116299;-81
2022/01/25 12:46:40;;;;;;;99.60;47.33;;;5.70;99.90;;;;;;7335192;19;112367;-79
2022/01/25 12:49:11;;;;;;;104.57;49.13;;;5.80;99.90;;;;;;7339472;19;115153;-80
2022/01/25 12:51:41;;;;;;;109.53;47.33;;;5.80;99.90;;;;;;7335387;19;112423;-80
2022/01/25 12:54:13;;;;;;;109.17;49.03;;;5.90;99.90;;;;;;7345912;19;111917;-80
2022/01/25 12:56:49;;;;;;;100.73;48.97;;;6.00;99.90;;;;;;7335518;19;112336;-80
2022/01/25 12:59:21;;;;;;;105.77;49.07;;;6.10;99.90;;;;;;7337052;19;112442;-80
2022/01/25 13:01:50;;;;;;;91.53;46.83;;;6.10;99.90;;;;;;7333931;19;112895;-81
2022/01/25 13:04:18;;;;;;;98.53;47.30;;;6.10;99.90;;;;;;7336742;19;111720;-81
2022/01/25 13:06:50;;;;;;;98.60;47.53;;;6.00;99.90;;;;;;7336138;19;112025;-81
2022/01/25 13:09:33;;;;;;;97.37;47.97;;;6.10;99.90;;;;;;7338020;19;112810;-81
2022/01/25 13:17:20;;;;;;;94.90;46.20;;;5.80;99.90;;;;;;7345780;19;115542;-81
2022/01/25 13:19:57;;;;;;;101.10;48.37;;;5.80;99.90;;;;;;7337272;19;111932;-81
2022/01/25 13:22:33;;;;;;;100.20;48.90;;;5.80;99.90;;;;;;7339407;19;112647;-81
2022/01/25 13:25:26;;;;;;;97.90;48.80;;;5.80;99.90;;;;;;7334617;19;110751;-81
2022/01/25 13:27:58;;;;;;;102.20;49.07;;;5.90;99.90;;;;;;7336423;19;112463;-81
2022/01/25 13:30:48;;;;;;;99.10;48.67;;;6.00;99.90;;;;;;7338932;19;111120;-81
2022/01/25 13:33:20;;;;;;;98.47;48.30;;;6.00;99.90;;;;;;7333560;19;111932;-81
2022/01/25 13:35:52;;;;;;;100.60;47.57;;;6.00;99.90;;;;;;7338889;19;115386;-81
2022/01/25 13:38:37;;;;;;;102.30;49.77;;;5.90;99.90;;;;;;7336351;19;113248;-80
2022/01/25 13:46:29;;;;;;;101.03;49.53;;;5.80;99.90;;;;;;7343099;19;111978;-81
2022/01/25 13:48:59;;;;;;;94.63;48.40;;;5.80;99.90;;;;;;7345989;19;112402;-81
2022/01/25 13:51:29;;;;;;;97.17;48.63;;;5.90;99.90;;;;;;7341453;19;110930;-80
2022/01/25 13:54:01;;;;;;;94.53;48.00;;;5.90;99.90;;;;;;7344981;19;115578;-80
2022/01/25 13:56:32;;;;;;;110.60;50.27;;;6.00;99.90;;;;;;7342512;19;112379;-81
2022/01/25 13:59:00;;;;;;;103.97;49.20;;;6.00;99.90;;;;;;7343449;19;109939;-81
2022/01/25 14:01:29;;;;;;;97.33;47.43;;;6.10;99.90;;;;;;7342710;19;112346;-81
2022/01/25 14:04:00;;;;;;;98.30;49.53;;;6.00;99.90;;;;;;7348472;19;111809;-81
2022/01/25 14:06:44;;;;;;;96.27;46.50;;;6.00;99.90;;;;;;7345148;19;112345;-80
2022/01/25 14:09:21;;;;;;;96.07;46.07;;;5.90;99.90;;;;;;7331615;19;112083;-80
2022/01/25 14:21:41;;;;;;;97.53;47.60;;;5.90;99.90;;;;;;7344900;19;112168;-81
2022/01/25 14:23:24;;;;;;;95.20;47.40;;;5.70;99.90;;;;;;7341753;19;111937;-81
2022/01/25 14:26:07;;;;;;;97.82;46.75;;;5.80;99.90;;;;;;7344671;19;111937;-81
2022/01/25 14:28:52;;;;;;;93.80;46.23;;;5.80;99.90;;;;;;7345244;19;110909;-81
2022/01/25 14:31:25;;;;;;;95.13;47.03;;;5.80;99.90;;;;;;7342925;19;112511;-81
2022/01/25 14:33:53;;;;;;;94.60;43.30;;;6.00;99.90;;;;;;7344175;19;112466;-81
2022/01/25 14:36:22;;;;;;;99.20;45.77;;;6.00;99.90;;;;;;7341835;19;112080;-81
2022/01/25 14:38:49;;;;;;;87.50;43.95;;;6.00;99.90;;;;;;7342624;19;112333;-81
2022/01/25 14:41:20;;;;;;;89.63;43.93;;;6.00;99.90;;;;;;7340180;19;112759;-81
2022/01/25 14:43:52;;;;;;;90.87;44.00;;;5.90;99.90;;;;;;7345304;19;115200;-81
2022/01/25 14:46:29;;;;;;;93.93;44.80;;;5.90;99.90;;;;;;7340588;19;111268;-81
2022/01/25 14:48:56;;;;;;;88.05;43.67;;;5.80;99.90;;;;;;7346542;19;112471;-81
2022/01/25 14:51:39;;;;;;;91.43;44.90;;;5.80;99.90;;;;;;7342932;19;111758;-80
2022/01/25 14:54:08;;;;;;;86.07;42.63;;;5.90;99.90;;;;;;7340847;19;112750;-80